Time;durP1;ratioP1;P1;durP2;ratioP2;P2;SDS_P1;SDS_P2;PMS_P1;PMS_P2;Temp;Humidity;BMP_temperature;BMP_pressure;BME280_temperature;BME280_humidity;BME280_pressure;Samples;Min_cycle;Max_cycle;Signal;HPM_P1;HPM_P2
2023/02/14 00:02:18;;;;;;;4.90;3.45;;;20.60;57.30;;;;;;4950113;28;86935;-86
2023/02/14 00:04:45;;;;;;;4.32;3.15;;;20.60;57.20;;;;;;4947415;28;87718;-86
2023/02/14 00:07:11;;;;;;;5.32;3.33;;;20.60;57.30;;;;;;4949291;28;89174;-87
2023/02/14 00:09:37;;;;;;;5.97;3.65;;;20.60;57.50;;;;;;4953915;28;88139;-86
2023/02/14 00:12:03;;;;;;;4.47;3.58;;;20.60;57.50;;;;;;4958771;28;87029;-86
2023/02/14 00:17:14;;;;;;;7.32;3.97;;;20.60;57.30;;;;;;4959090;28;88122;-86
2023/02/14 00:19:39;;;;;;;5.95;3.45;;;20.50;57.30;;;;;;4948105;28;89888;-86
2023/02/14 00:22:05;;;;;;;5.32;3.28;;;20.50;57.20;;;;;;4949117;28;87339;-86
2023/02/14 00:24:31;;;;;;;3.67;3.25;;;20.50;57.30;;;;;;4952425;28;87493;-86
2023/02/14 00:26:57;;;;;;;4.03;3.13;;;20.50;57.30;;;;;;4947234;28;87248;-86
2023/02/14 00:29:26;;;;;;;6.38;3.42;;;20.40;57.40;;;;;;4950129;28;88284;-86
2023/02/14 00:31:52;;;;;;;5.68;3.60;;;20.40;57.30;;;;;;4948470;28;86834;-86
2023/02/14 00:34:18;;;;;;;4.22;3.25;;;20.40;57.40;;;;;;4935328;28;86967;-86
2023/02/14 00:36:44;;;;;;;5.55;3.28;;;20.40;57.40;;;;;;4949240;28;88504;-86
2023/02/14 00:39:12;;;;;;;4.60;3.20;;;20.40;57.40;;;;;;4947989;28;87405;-86
2023/02/14 00:41:39;;;;;;;5.05;2.95;;;20.40;57.50;;;;;;4948378;28;87887;-86
2023/02/14 00:47:27;;;;;;;5.40;3.72;;;20.30;57.30;;;;;;4956937;28;91788;-86
2023/02/14 00:49:52;;;;;;;4.60;3.35;;;20.30;57.40;;;;;;4958716;28;87867;-86
2023/02/14 00:52:18;;;;;;;3.50;2.83;;;20.30;57.30;;;;;;4958040;28;87635;-86
2023/02/14 00:54:43;;;;;;;5.50;3.50;;;20.20;57.40;;;;;;4957779;28;87007;-86
2023/02/14 00:57:09;;;;;;;5.13;3.35;;;20.20;57.40;;;;;;4957889;28;88388;-86
2023/02/14 00:59:35;;;;;;;4.45;3.08;;;20.20;57.40;;;;;;4957623;28;87778;-86
2023/02/14 01:02:02;;;;;;;5.18;3.25;;;20.20;57.30;;;;;;4958767;28;87496;-86
2023/02/14 01:04:33;;;;;;;5.70;3.55;;;20.20;57.40;;;;;;4957542;28;87590;-86
2023/02/14 01:06:58;;;;;;;5.25;3.63;;;20.20;57.30;;;;;;4956830;28;89229;-86
2023/02/14 01:16:13;;;;;;;4.40;3.05;;;20.20;57.40;;;;;;4958132;28;86830;-85
2023/02/14 01:18:39;;;;;;;4.75;3.70;;;20.10;57.40;;;;;;4957553;28;88541;-86
2023/02/14 01:21:25;;;;;;;4.93;3.10;;;20.10;57.40;;;;;;4947297;28;91399;-86
2023/02/14 01:23:53;;;;;;;4.80;3.40;;;20.10;57.30;;;;;;4957725;28;87428;-86
2023/02/14 01:26:21;;;;;;;4.32;3.20;;;20.10;57.20;;;;;;4940622;28;90344;-86
2023/02/14 01:28:56;;;;;;;5.38;3.55;;;20.10;57.30;;;;;;4957644;28;87896;-86
2023/02/14 01:31:27;;;;;;;4.63;2.95;;;20.10;57.30;;;;;;4957272;28;88340;-86
2023/02/14 01:33:54;;;;;;;3.97;3.20;;;20.10;57.70;;;;;;4957374;28;88380;-86
2023/02/14 01:36:21;;;;;;;3.85;3.15;;;20.00;57.00;;;;;;4939215;28;90769;-86
2023/02/14 01:38:49;;;;;;;4.50;3.40;;;20.00;57.10;;;;;;4957123;28;88420;-86
2023/02/14 01:44:36;;;;;;;5.30;3.55;;;20.00;57.20;;;;;;4955763;28;87499;-86
2023/02/14 01:47:05;;;;;;;4.13;2.85;;;20.00;57.10;;;;;;4957526;28;87511;-86
2023/02/14 01:49:45;;;;;;;4.85;3.53;;;20.00;57.20;;;;;;4957191;28;87173;-86
2023/02/14 01:52:19;;;;;;;5.47;3.38;;;20.00;57.50;;;;;;4936467;28;90228;-86
2023/02/14 01:55:08;;;;;;;5.00;3.35;;;19.90;57.20;;;;;;4948448;28;87467;-86
2023/02/14 01:57:40;;;;;;;4.65;2.90;;;19.90;56.90;;;;;;4956911;28;87454;-86
2023/02/14 02:02:53;;;;;;;5.03;3.70;;;19.90;57.10;;;;;;4950444;28;87821;-86
2023/02/14 02:06:14;;;;;;;6.13;3.40;;;19.90;57.10;;;;;;4958075;28;87098;-86
2023/02/14 02:08:51;;;;;;;3.92;2.92;;;19.80;57.00;;;;;;4956747;28;91888;-86
2023/02/14 02:11:16;;;;;;;4.30;3.47;;;19.90;57.10;;;;;;4956740;28;88715;-86
2023/02/14 02:13:42;;;;;;;3.65;2.78;;;19.80;57.00;;;;;;4956838;28;88411;-86
2023/02/14 02:16:28;;;;;;;4.18;2.90;;;19.80;57.00;;;;;;4957046;28;87412;-87
2023/02/14 02:19:21;;;;;;;5.05;3.03;;;19.80;57.20;;;;;;4956842;28;86466;-86
2023/02/14 02:22:24;;;;;;;3.63;2.88;;;19.80;57.00;;;;;;4956598;28;88655;-86
2023/02/14 02:25:26;;;;;;;5.30;3.33;;;19.80;57.10;;;;;;4955987;28;87456;-87
2023/02/14 02:28:21;;;;;;;5.70;3.58;;;19.80;56.90;;;;;;4956011;28;88334;-86
2023/02/14 02:30:53;;;;;;;5.32;3.25;;;19.80;57.00;;;;;;4956822;28;87317;-86
2023/02/14 02:33:37;;;;;;;4.35;3.20;;;19.70;57.00;;;;;;4956194;28;88567;-87
2023/02/14 02:36:42;;;;;;;4.55;3.25;;;19.70;56.90;;;;;;4956972;28;87525;-87
2023/02/14 02:39:26;;;;;;;4.78;3.70;;;19.70;56.90;;;;;;4954388;28;87581;-86
2023/02/14 02:42:05;;;;;;;4.88;3.47;;;19.70;56.90;;;;;;4956917;28;87350;-86
2023/02/14 02:44:41;;;;;;;5.47;3.47;;;19.70;56.70;;;;;;4956720;28;91954;-86
2023/02/14 02:57:22;;;;;;;4.05;3.25;;;19.60;56.90;;;;;;4958703;28;88322;-86
2023/02/14 02:59:52;;;;;;;4.07;3.10;;;19.60;56.90;;;;;;4957083;28;93463;-86
2023/02/14 03:05:27;;;;;;;4.13;3.00;;;19.60;56.80;;;;;;4958738;28;89369;-86
2023/02/14 03:07:53;;;;;;;4.93;3.28;;;19.60;56.80;;;;;;4960440;28;87719;-86
2023/02/14 03:10:28;;;;;;;6.32;3.40;;;19.60;56.80;;;;;;4959238;28;87336;-86
2023/02/14 03:13:09;;;;;;;4.78;3.30;;;19.60;56.80;;;;;;4959353;28;87354;-86
2023/02/14 03:15:46;;;;;;;4.68;3.10;;;19.50;56.80;;;;;;4959521;28;87499;-86
2023/02/14 03:21:34;;;;;;;4.18;3.22;;;19.50;56.60;;;;;;4959216;28;87535;-85
2023/02/14 03:24:24;;;;;;;3.63;2.80;;;19.50;56.80;;;;;;4937440;28;88641;-86
2023/02/14 03:26:55;;;;;;;3.00;2.70;;;19.50;56.70;;;;;;4942614;28;87880;-86
2023/02/14 03:29:42;;;;;;;3.60;3.17;;;19.50;56.80;;;;;;4960263;28;88671;-86
2023/02/14 03:32:08;;;;;;;3.97;2.92;;;19.50;56.80;;;;;;4959274;28;92551;-86
2023/02/14 03:35:16;;;;;;;2.70;2.50;;;19.50;56.70;;;;;;4959413;28;87232;-86
2023/02/14 03:37:54;;;;;;;4.10;3.25;;;19.50;56.70;;;;;;4958580;28;87358;-86
2023/02/14 03:40:23;;;;;;;3.83;2.85;;;19.50;56.60;;;;;;4958634;28;88803;-86
2023/02/14 03:42:53;;;;;;;4.38;3.28;;;19.40;56.70;;;;;;4940812;28;91605;-86
2023/02/14 03:45:32;;;;;;;4.47;2.60;;;19.40;56.60;;;;;;4958822;28;87010;-86
2023/02/14 03:48:04;;;;;;;4.93;3.58;;;19.40;56.60;;;;;;4959002;28;87433;-86
2023/02/14 03:50:31;;;;;;;3.80;3.13;;;19.40;56.40;;;;;;4939866;28;94726;-86
2023/02/14 03:52:58;;;;;;;4.15;3.20;;;19.40;56.40;;;;;;4959601;28;89753;-86
2023/02/14 03:58:52;;;;;;;3.40;2.97;;;19.40;56.50;;;;;;4877524;28;87220;-86
2023/02/14 04:01:50;;;;;;;4.20;3.08;;;19.40;56.40;;;;;;4879001;28;88302;-85
2023/02/14 04:04:19;;;;;;;3.95;3.08;;;19.30;56.30;;;;;;4878564;28;88373;-86
2023/02/14 04:06:45;;;;;;;;;;;19.40;56.70;;;;;;4879894;28;87695;-86
2023/02/14 04:09:10;;;;;;;5.82;3.33;;;19.30;56.40;;;;;;4880561;28;87010;-86
2023/02/14 04:11:37;;;;;;;3.60;2.60;;;19.30;56.40;;;;;;4879317;28;89045;-86
2023/02/14 04:14:03;;;;;;;3.78;2.72;;;19.30;56.40;;;;;;4880159;28;87958;-86
2023/02/14 04:16:29;;;;;;;3.70;2.75;;;19.30;56.50;;;;;;4877818;28;88185;-86
2023/02/14 04:29:01;;;;;;;4.38;3.22;;;19.30;56.30;;;;;;4878876;28;87098;-86
2023/02/14 04:31:26;;;;;;;3.75;2.90;;;19.30;56.20;;;;;;4878654;28;87474;-86
2023/02/14 04:33:52;;;;;;;4.53;2.78;;;19.30;56.20;;;;;;4871330;28;88228;-86
2023/02/14 04:36:17;;;;;;;3.25;2.65;;;19.20;56.40;;;;;;4946756;28;88245;-86
2023/02/14 04:38:43;;;;;;;4.30;3.38;;;19.20;56.20;;;;;;4946480;28;87520;-86
2023/02/14 04:41:09;;;;;;;3.75;2.83;;;19.20;56.30;;;;;;4937498;28;90601;-86
2023/02/14 04:43:34;;;;;;;4.22;3.13;;;19.20;56.20;;;;;;4938024;28;89811;-86
2023/02/14 04:46:00;;;;;;;3.90;3.30;;;19.20;56.30;;;;;;4938440;28;88275;-86
2023/02/14 04:58:32;;;;;;;3.67;3.20;;;19.10;56.40;;;;;;4938100;28;87254;-86
2023/02/14 05:00:58;;;;;;;4.05;2.95;;;19.10;56.40;;;;;;4954352;28;87017;-86
2023/02/14 05:03:23;;;;;;;3.53;2.65;;;19.10;56.40;;;;;;4954585;28;86805;-86
2023/02/14 05:05:49;;;;;;;4.30;3.25;;;19.10;56.20;;;;;;4953861;28;89084;-86
2023/02/14 05:08:15;;;;;;;5.35;3.20;;;19.10;56.30;;;;;;4955306;28;88037;-86
2023/02/14 05:10:40;;;;;;;3.33;3.03;;;19.10;56.40;;;;;;4956474;28;88555;-86
2023/02/14 05:13:06;;;;;;;3.70;2.85;;;19.10;56.30;;;;;;4957257;28;87405;-86
2023/02/14 05:15:50;;;;;;;3.22;2.63;;;19.10;56.30;;;;;;4956877;28;88552;-86
2023/02/14 05:18:16;;;;;;;4.40;3.40;;;19.10;56.30;;;;;;4936144;28;91236;-86
2023/02/14 05:20:41;;;;;;;4.25;3.15;;;19.10;56.30;;;;;;4939455;28;87934;-86
2023/02/14 05:23:12;;;;;;;4.88;3.05;;;19.00;56.20;;;;;;4948515;28;87344;-86
2023/02/14 05:25:38;;;;;;;3.70;2.63;;;19.10;56.30;;;;;;4948008;28;88691;-86
2023/02/14 05:28:05;;;;;;;4.10;3.08;;;19.00;56.10;;;;;;4947153;28;88254;-86
2023/02/14 05:30:30;;;;;;;4.72;3.00;;;19.00;56.10;;;;;;4948474;28;87467;-86
2023/02/14 05:56:28;;;;;;;3.05;2.58;;;19.00;56.00;;;;;;4956373;28;86858;-86
2023/02/14 05:58:54;;;;;;;3.35;2.80;;;18.90;55.90;;;;;;4957494;28;86710;-86
2023/02/14 06:01:20;;;;;;;2.75;2.38;;;18.90;55.80;;;;;;4956834;28;88829;-86
2023/02/14 06:03:45;;;;;;;3.63;2.90;;;18.90;56.00;;;;;;4956094;28;88236;-86
2023/02/14 06:09:45;;;;;;;4.30;2.80;;;18.90;55.90;;;;;;4956872;28;87590;-86
2023/02/14 06:12:10;;;;;;;3.38;2.78;;;18.90;56.00;;;;;;4955041;28;95415;-86
2023/02/14 06:14:36;;;;;;;3.70;3.00;;;18.90;56.20;;;;;;4956459;28;88282;-86
2023/02/14 06:17:02;;;;;;;3.78;2.83;;;18.90;55.80;;;;;;4939746;28;87823;-86
2023/02/14 06:19:28;;;;;;;2.53;2.28;;;18.80;55.80;;;;;;4955221;28;89792;-86
2023/02/14 06:21:53;;;;;;;3.25;2.53;;;18.90;55.90;;;;;;4957056;28;88659;-86
2023/02/14 06:24:19;;;;;;;4.03;3.17;;;18.90;55.90;;;;;;4960078;28;87485;-86
2023/02/14 06:33:28;;;;;;;3.53;2.58;;;18.80;56.00;;;;;;4958556;28;88491;-86
2023/02/14 06:35:54;;;;;;;3.75;2.85;;;18.80;56.10;;;;;;4960070;28;89347;-86
2023/02/14 06:38:22;;;;;;;3.83;2.70;;;18.80;56.00;;;;;;4943179;28;87709;-86
2023/02/14 06:40:47;;;;;;;3.50;2.70;;;18.80;56.10;;;;;;4959860;28;87769;-86
2023/02/14 06:43:32;;;;;;;3.58;2.60;;;18.80;56.00;;;;;;4959549;28;88511;-86
2023/02/14 06:45:57;;;;;;;3.38;3.08;;;18.80;56.00;;;;;;4959902;28;87366;-86
2023/02/14 06:48:23;;;;;;;3.60;2.53;;;18.80;55.90;;;;;;4959761;28;87475;-87
2023/02/14 06:50:49;;;;;;;3.10;2.70;;;18.80;55.90;;;;;;4941626;28;89690;-86
2023/02/14 06:53:14;;;;;;;3.10;2.72;;;18.80;55.90;;;;;;4960301;28;88754;-86
2023/02/14 06:55:40;;;;;;;4.22;3.13;;;18.70;55.80;;;;;;4958915;28;89337;-86
2023/02/14 06:58:06;;;;;;;3.42;2.97;;;18.70;55.90;;;;;;4953462;28;94253;-86
2023/02/14 07:00:32;;;;;;;4.28;2.88;;;18.70;56.10;;;;;;4953659;28;87711;-86
2023/02/14 07:02:57;;;;;;;4.30;2.55;;;18.80;56.20;;;;;;4958132;28;88666;-86
2023/02/14 07:05:23;;;;;;;3.20;2.50;;;18.80;55.90;;;;;;4950473;28;88383;-87
2023/02/14 07:07:49;;;;;;;5.82;2.45;;;18.80;55.70;;;;;;4934776;28;87659;-87
2023/02/14 07:10:14;;;;;;;4.78;3.08;;;18.80;55.80;;;;;;4939506;28;89859;-87
2023/02/14 07:12:40;;;;;;;3.17;2.83;;;18.80;55.70;;;;;;4937610;28;91708;-86
2023/02/14 07:15:26;;;;;;;3.83;2.80;;;18.90;55.60;;;;;;4945703;28;88294;-86
2023/02/14 07:17:52;;;;;;;4.63;3.00;;;19.00;55.80;;;;;;4944934;28;87743;-84
2023/02/14 07:20:18;;;;;;;4.57;3.10;;;19.10;55.20;;;;;;4960280;28;87045;-86
2023/02/14 07:22:44;;;;;;;6.20;3.00;;;19.30;55.50;;;;;;4958791;28;89635;-86
2023/02/14 07:25:10;;;;;;;6.85;2.95;;;19.50;55.60;;;;;;4939187;28;89453;-87
2023/02/14 07:27:35;;;;;;;5.85;2.70;;;19.70;55.30;;;;;;4954654;28;87261;-87
2023/02/14 07:30:02;;;;;;;4.53;2.95;;;19.80;55.00;;;;;;4948010;28;88185;-86
2023/02/14 07:39:23;;;;;;;8.93;3.10;;;20.10;54.60;;;;;;4957098;28;87288;-87
2023/02/14 07:41:49;;;;;;;5.03;2.85;;;20.20;54.70;;;;;;4917603;28;89874;-86
2023/02/14 07:44:14;;;;;;;3.40;2.58;;;20.20;54.60;;;;;;4917960;28;88200;-87
2023/02/14 07:46:40;;;;;;;5.35;2.47;;;20.20;54.80;;;;;;4916583;28;88237;-87
2023/02/14 07:49:06;;;;;;;3.55;2.78;;;20.20;54.70;;;;;;4917782;28;88081;-88
2023/02/14 08:07:07;;;;;;;4.25;3.05;;;20.00;56.10;;;;;;4908048;28;90474;-86
2023/02/14 08:09:33;;;;;;;3.25;2.72;;;20.00;55.60;;;;;;4897795;28;88846;-87
2023/02/14 08:14:43;;;;;;;4.22;3.10;;;19.90;55.40;;;;;;4902882;28;87169;-86
2023/02/14 08:17:12;;;;;;;3.90;2.55;;;20.00;55.60;;;;;;4921084;28;87126;-86
2023/02/14 08:19:38;;;;;;;4.93;2.87;;;19.90;55.70;;;;;;4951593;28;91686;-85
2023/02/14 08:22:04;;;;;;;5.10;2.50;;;19.90;55.70;;;;;;4936891;28;91865;-86
2023/02/14 08:24:30;;;;;;;5.65;2.78;;;20.00;55.90;;;;;;4938719;28;87788;-86
2023/02/14 08:26:56;;;;;;;4.75;2.97;;;20.00;55.70;;;;;;4938620;28;87310;-86
2023/02/14 08:29:22;;;;;;;4.03;2.90;;;19.90;55.80;;;;;;4938013;28;92006;-86
2023/02/14 08:31:48;;;;;;;5.65;2.80;;;19.90;55.80;;;;;;4939368;28;87405;-85
2023/02/14 08:34:15;;;;;;;3.75;2.42;;;20.00;55.70;;;;;;4938761;28;87286;-84
2023/02/14 08:36:41;;;;;;;4.65;3.00;;;20.00;55.80;;;;;;4938967;28;86778;-85
2023/02/14 08:42:29;;;;;;;6.18;2.50;;;20.20;55.00;;;;;;4936693;28;86992;-86
2023/02/14 08:44:55;;;;;;;16.80;5.05;;;20.30;55.20;;;;;;4936419;28;88209;-84
2023/02/14 08:47:20;;;;;;;21.67;5.35;;;20.30;54.40;;;;;;4937252;28;87785;-86
2023/02/14 08:49:46;;;;;;;10.32;4.72;;;20.30;54.00;;;;;;4938423;28;88081;-86
2023/02/14 08:55:34;;;;;;;6.82;3.55;;;20.40;54.20;;;;;;4938397;28;87297;-85
2023/02/14 08:58:00;;;;;;;14.10;4.00;;;20.40;54.40;;;;;;4938747;28;87552;-86
2023/02/14 09:00:26;;;;;;;13.68;5.40;;;20.40;54.60;;;;;;4936632;28;91837;-86
2023/02/14 09:02:52;;;;;;;11.90;4.30;;;20.40;54.60;;;;;;4939032;28;88929;-86
2023/02/14 09:05:22;;;;;;;10.60;3.92;;;20.40;54.50;;;;;;4946107;28;87618;-84
2023/02/14 09:07:48;;;;;;;;;;;20.40;54.60;;;;;;4943507;28;88191;-84
2023/02/14 09:10:13;;;;;;;10.85;3.72;;;20.40;54.80;;;;;;4951725;28;90014;-84
2023/02/14 09:12:42;;;;;;;10.18;3.78;;;20.40;54.60;;;;;;4952732;28;89280;-84
2023/02/14 09:15:11;;;;;;;10.07;4.13;;;20.40;54.60;;;;;;4938676;28;87337;-84
2023/02/14 09:31:25;;;;;;;13.82;4.93;;;20.40;55.30;;;;;;4951657;28;86765;-84
2023/02/14 09:33:51;;;;;;;16.23;6.43;;;20.50;55.40;;;;;;4957440;28;88523;-84
2023/02/14 09:36:16;;;;;;;12.77;4.65;;;20.50;55.30;;;;;;4957664;28;87515;-85
2023/02/14 09:38:42;;;;;;;16.83;5.30;;;20.50;55.70;;;;;;4938125;28;88580;-85
2023/02/14 09:41:13;;;;;;;13.23;5.25;;;20.50;56.10;;;;;;4948381;28;87601;-84
2023/02/14 09:43:59;;;;;;;16.77;5.68;;;20.50;56.30;;;;;;4947599;28;89292;-84
2023/02/14 09:46:27;;;;;;;18.33;6.50;;;20.50;56.00;;;;;;4947355;28;88719;-85
2023/02/14 09:48:54;;;;;;;18.27;5.72;;;20.50;56.50;;;;;;4953011;28;87347;-85
2023/02/14 09:51:24;;;;;;;14.48;5.45;;;20.50;56.30;;;;;;4956806;28;87437;-85
2023/02/14 09:53:54;;;;;;;16.70;6.25;;;20.50;57.00;;;;;;4955347;28;88530;-85
2023/02/14 09:56:25;;;;;;;11.63;5.63;;;20.50;57.70;;;;;;4948751;28;88141;-84
2023/02/14 09:58:53;;;;;;;14.05;6.03;;;20.50;58.00;;;;;;4945853;28;89060;-85
2023/02/14 10:01:40;;;;;;;16.45;5.15;;;20.60;57.80;;;;;;4954841;28;87022;-85
2023/02/14 10:04:12;;;;;;;15.35;5.93;;;20.60;58.10;;;;;;4949173;28;91688;-85
2023/02/14 10:07:00;;;;;;;14.05;6.10;;;20.50;58.00;;;;;;4948200;28;88865;-85
2023/02/14 10:19:39;;;;;;;17.55;5.53;;;20.50;58.30;;;;;;4955135;28;87461;-85
2023/02/14 10:22:23;;;;;;;13.48;5.90;;;20.50;58.40;;;;;;4950418;28;87496;-84
2023/02/14 10:24:52;;;;;;;15.50;7.15;;;20.50;57.80;;;;;;4947091;28;87313;-84
2023/02/14 10:27:38;;;;;;;15.07;6.18;;;20.60;57.80;;;;;;4950554;28;88263;-84
2023/02/14 10:30:15;;;;;;;10.73;5.25;;;20.60;58.00;;;;;;4956538;28;88218;-84
2023/02/14 10:33:17;;;;;;;11.90;5.47;;;20.50;58.50;;;;;;4955943;28;89003;-86
2023/02/14 10:35:47;;;;;;;12.45;5.93;;;20.50;58.80;;;;;;4956870;28;87529;-85
2023/02/14 10:38:43;;;;;;;10.75;5.88;;;20.60;58.90;;;;;;4957036;28;87986;-86
2023/02/14 10:41:21;;;;;;;12.05;6.20;;;20.60;59.00;;;;;;4956662;28;91854;-87
2023/02/14 10:44:37;;;;;;;15.05;5.60;;;20.50;59.30;;;;;;4956839;28;87568;-87
2023/02/14 10:47:30;;;;;;;9.38;5.10;;;20.50;59.50;;;;;;4938461;28;94544;-87
2023/02/14 10:50:11;;;;;;;14.70;7.22;;;20.50;59.10;;;;;;4956601;28;92034;-87
2023/02/14 10:52:39;;;;;;;12.35;5.30;;;20.40;57.60;;;;;;4956340;28;88473;-87
2023/02/14 10:55:22;;;;;;;14.55;6.40;;;20.40;59.20;;;;;;4956298;28;87579;-87
2023/02/14 10:57:52;;;;;;;15.73;5.97;;;20.30;59.10;;;;;;4956330;28;87548;-88
2023/02/14 11:00:21;;;;;;;10.73;5.93;;;20.30;59.50;;;;;;4955900;28;88713;-87
2023/02/14 11:02:51;;;;;;;16.48;6.78;;;20.30;59.70;;;;;;4954711;28;92781;-88
2023/02/14 11:05:42;;;;;;;8.88;5.45;;;20.30;59.70;;;;;;4957807;28;87419;-87
2023/02/14 11:08:45;;;;;;;11.30;5.45;;;20.30;60.00;;;;;;4955647;28;91388;-88
2023/02/14 11:11:23;;;;;;;13.65;6.13;;;20.30;60.20;;;;;;4860071;29;92848;-88
2023/02/14 11:13:51;;;;;;;13.02;6.13;;;20.30;60.30;;;;;;4860731;28;88379;-88
2023/02/14 11:16:34;;;;;;;13.10;6.17;;;20.20;60.40;;;;;;4860161;28;87299;-88
2023/02/14 11:19:14;;;;;;;11.85;6.20;;;20.30;60.60;;;;;;4861185;28;86983;-88
2023/02/14 11:21:41;;;;;;;;;;;20.20;60.80;;;;;;4852529;28;90240;-88
2023/02/14 11:24:41;;;;;;;11.02;6.05;;;20.20;60.80;;;;;;4862386;29;87169;-85
2023/02/14 11:27:09;;;;;;;11.82;6.30;;;20.30;59.60;;;;;;4806943;29;88272;-87
2023/02/14 11:29:37;;;;;;;12.18;6.20;;;20.30;58.80;;;;;;4823471;29;87313;-87
2023/02/14 11:32:12;;;;;;;12.05;5.70;;;20.30;60.20;;;;;;4823604;29;87575;-86
2023/02/14 11:34:41;;;;;;;15.13;6.50;;;20.30;60.10;;;;;;4822507;29;88290;-86
2023/02/14 11:37:20;;;;;;;12.40;5.67;;;20.30;60.20;;;;;;4822591;29;87021;-86
2023/02/14 11:39:46;;;;;;;;;;;20.30;60.50;;;;;;4824028;29;87590;-86
2023/02/14 11:42:12;;;;;;;10.48;5.40;;;20.30;60.50;;;;;;4823572;29;89601;-86
2023/02/14 11:44:54;;;;;;;11.38;5.53;;;20.20;60.70;;;;;;4823372;29;88930;-86
2023/02/14 11:47:29;;;;;;;11.73;5.95;;;20.30;60.70;;;;;;4843997;28;87578;-87
2023/02/14 11:50:04;;;;;;;12.32;5.18;;;20.40;60.50;;;;;;4878947;28;91705;-87
2023/02/14 11:52:32;;;;;;;16.48;5.80;;;20.40;59.90;;;;;;4871605;28;89376;-89
2023/02/14 11:54:59;;;;;;;11.25;5.50;;;20.40;59.30;;;;;;4879104;28;90262;-88
2023/02/14 11:57:34;;;;;;;11.35;5.60;;;20.40;59.90;;;;;;4870719;28;87303;-88
2023/02/14 12:00:02;;;;;;;28.30;9.32;;;20.30;59.40;;;;;;4876032;28;87500;-86
2023/02/14 12:02:40;;;;;;;47.00;10.57;;;20.20;58.00;;;;;;4909767;28;88708;-87
2023/02/14 12:05:19;;;;;;;23.92;7.95;;;20.30;58.40;;;;;;4958294;28;88395;-86
2023/02/14 12:07:47;;;;;;;30.08;9.55;;;20.40;58.30;;;;;;4959132;28;87185;-86
2023/02/14 12:10:16;;;;;;;25.15;9.02;;;20.30;58.40;;;;;;4950236;28;87942;-86
2023/02/14 12:12:53;;;;;;;24.10;8.75;;;20.30;58.90;;;;;;4958536;28;88035;-86
2023/02/14 12:15:27;;;;;;;27.13;7.20;;;20.20;59.20;;;;;;4958232;28;88107;-86
2023/02/14 12:18:04;;;;;;;23.20;8.30;;;20.20;59.30;;;;;;4958155;28;88297;-86
2023/02/14 12:20:36;;;;;;;25.23;8.13;;;20.20;59.20;;;;;;4921815;28;91072;-85
2023/02/14 12:23:29;;;;;;;31.50;9.70;;;20.20;59.20;;;;;;4957721;28;88677;-87
2023/02/14 12:26:24;;;;;;;23.73;8.32;;;20.20;59.10;;;;;;4958526;28;92215;-87
2023/02/14 12:32:15;;;;;;;26.05;7.72;;;20.20;58.90;;;;;;4957235;28;90286;-86
2023/02/14 12:34:41;;;;;;;20.47;7.90;;;20.20;59.10;;;;;;4955388;28;87834;-86
2023/02/14 12:37:11;;;;;;;20.42;7.78;;;20.20;59.00;;;;;;4956008;28;88858;-87
2023/02/14 12:40:06;;;;;;;27.77;7.55;;;20.20;59.00;;;;;;4956068;28;87459;-87
2023/02/14 12:43:00;;;;;;;21.35;7.53;;;20.20;59.00;;;;;;4876094;28;87573;-86
2023/02/14 12:45:58;;;;;;;23.95;8.05;;;20.20;59.10;;;;;;4877838;28;89498;-86
2023/02/14 12:48:48;;;;;;;19.70;7.32;;;20.20;59.20;;;;;;4878089;28;89574;-86
2023/02/14 12:58:25;;;;;;;16.17;7.88;;;20.30;58.70;;;;;;4859944;29;86929;-86
2023/02/14 13:00:56;;;;;;;21.73;7.68;;;20.40;57.70;;;;;;4850506;29;91154;-86
2023/02/14 13:03:36;;;;;;;20.20;7.07;;;20.40;57.80;;;;;;4855441;29;87638;-86
2023/02/14 13:06:26;;;;;;;15.85;6.97;;;20.40;58.10;;;;;;4850304;29;87522;-86
2023/02/14 13:12:32;;;;;;;18.15;6.40;;;20.20;58.50;;;;;;4850031;28;87351;-86
2023/02/14 13:15:36;;;;;;;17.70;7.47;;;20.30;57.80;;;;;;4851319;29;88798;-86
2023/02/14 13:18:16;;;;;;;14.27;6.10;;;20.30;58.00;;;;;;4858884;29;91144;-86
2023/02/14 13:20:49;;;;;;;15.90;6.60;;;20.30;58.10;;;;;;4915136;28;88820;-86
2023/02/14 13:23:23;;;;;;;18.95;6.90;;;20.20;58.30;;;;;;4926608;28;87115;-86
2023/02/14 13:29:25;;;;;;;20.02;7.03;;;20.30;57.90;;;;;;4897036;28;90415;-85
2023/02/14 13:31:56;;;;;;;20.55;7.03;;;20.40;57.70;;;;;;4904610;28;96923;-88
2023/02/14 13:34:35;;;;;;;21.00;7.68;;;20.40;57.60;;;;;;4916755;28;87129;-87
2023/02/14 13:37:05;;;;;;;15.13;6.68;;;20.30;56.80;;;;;;4915728;28;87608;-87
2023/02/14 13:40:11;;;;;;;15.95;7.03;;;20.30;57.10;;;;;;4916069;28;87598;-87
2023/02/14 13:42:48;;;;;;;16.20;7.03;;;20.30;57.00;;;;;;4915197;28;89167;-87
2023/02/14 13:45:31;;;;;;;21.38;8.43;;;20.40;57.30;;;;;;4915190;28;89452;-87
2023/02/14 13:48:17;;;;;;;17.33;7.75;;;20.30;56.00;;;;;;4916021;28;87194;-86
2023/02/14 13:57:35;;;;;;;17.85;7.70;;;20.20;54.40;;;;;;4956679;28;87470;-85
2023/02/14 14:00:35;;;;;;;10.68;6.28;;;20.30;55.60;;;;;;4935487;28;86949;-85
2023/02/14 14:03:01;;;;;;;15.88;6.68;;;20.30;56.20;;;;;;4860844;28;87523;-85
2023/02/14 14:05:31;;;;;;;13.60;6.90;;;20.30;56.10;;;;;;4868245;28;87684;-85
2023/02/14 14:08:15;;;;;;;13.60;6.45;;;20.40;56.20;;;;;;4877538;28;89005;-86
2023/02/14 14:10:44;;;;;;;16.90;6.72;;;20.40;56.00;;;;;;4877287;28;88520;-86
2023/02/14 14:13:30;;;;;;;14.88;6.47;;;20.40;56.10;;;;;;4877294;28;87902;-85
2023/02/14 14:16:23;;;;;;;11.02;5.90;;;20.50;56.00;;;;;;4868143;28;88179;-85
2023/02/14 14:19:17;;;;;;;14.75;6.07;;;20.50;55.60;;;;;;4877254;28;87433;-85
2023/02/14 14:21:59;;;;;;;14.63;6.05;;;20.50;55.50;;;;;;4877028;28;87419;-86
2023/02/14 14:31:20;;;;;;;16.05;6.78;;;20.60;55.20;;;;;;4877739;28;87402;-87
2023/02/14 14:33:56;;;;;;;9.93;5.90;;;20.70;55.30;;;;;;4877294;28;87580;-88
2023/02/14 14:36:22;;;;;;;12.13;5.80;;;20.60;55.50;;;;;;4877319;28;87334;-87
2023/02/14 14:38:50;;;;;;;12.93;5.93;;;20.50;55.80;;;;;;4879951;28;88605;-87
2023/02/14 14:41:16;;;;;;;13.27;6.22;;;20.50;56.10;;;;;;4957173;28;93730;-87
2023/02/14 14:43:47;;;;;;;11.95;6.07;;;20.50;56.50;;;;;;4939576;28;87593;-87
2023/02/14 14:46:15;;;;;;;11.48;5.63;;;20.40;56.70;;;;;;4960113;28;87401;-86
2023/02/14 14:48:48;;;;;;;11.40;5.85;;;20.40;56.70;;;;;;4952189;28;91438;-87
2023/02/14 14:51:34;;;;;;;11.73;6.20;;;20.40;56.90;;;;;;4942566;28;91860;-87
2023/02/14 14:54:14;;;;;;;15.35;6.63;;;20.40;57.00;;;;;;4959498;28;87005;-86
2023/02/14 14:56:55;;;;;;;16.23;5.85;;;20.50;57.10;;;;;;4957936;28;86874;-87
2023/02/14 14:59:21;;;;;;;15.50;6.30;;;20.50;57.00;;;;;;4940966;28;88469;-87
2023/02/14 15:01:50;;;;;;;10.30;5.50;;;20.50;57.10;;;;;;4949417;28;88328;-87
2023/02/14 15:04:15;;;;;;;13.33;5.83;;;20.50;57.00;;;;;;4948257;28;87791;-86
2023/02/14 15:06:47;;;;;;;12.38;6.43;;;20.50;57.20;;;;;;4949679;28;87437;-86
2023/02/14 15:09:21;;;;;;;12.75;5.93;;;20.40;57.20;;;;;;4952851;28;88348;-87
2023/02/14 15:25:31;;;;;;;16.77;10.32;;;21.10;54.40;;;;;;4959654;28;86799;-87
2023/02/14 15:27:57;;;;;;;27.30;18.05;;;20.80;55.60;;;;;;4948882;28;87372;-87
2023/02/14 15:30:28;;;;;;;28.10;19.85;;;20.80;56.60;;;;;;4958659;28;87576;-87
2023/02/14 15:32:54;;;;;;;25.98;20.58;;;20.70;57.50;;;;;;4957563;28;89526;-88
2023/02/14 15:35:30;;;;;;;27.35;17.88;;;20.70;58.40;;;;;;4941089;28;92589;-87
2023/02/14 15:37:58;;;;;;;25.00;17.45;;;20.60;58.70;;;;;;4958797;28;87392;-87
2023/02/14 15:40:26;;;;;;;25.90;18.25;;;20.60;58.70;;;;;;4958541;28;87370;-87
2023/02/14 15:42:56;;;;;;;25.60;18.63;;;20.60;59.00;;;;;;4958305;28;89183;-87
2023/02/14 15:45:25;;;;;;;26.35;18.30;;;20.60;59.20;;;;;;4957865;28;87588;-85
2023/02/14 15:48:02;;;;;;;22.90;16.83;;;20.60;59.30;;;;;;4940482;28;86979;-86
2023/02/14 15:50:51;;;;;;;20.52;16.30;;;20.70;58.90;;;;;;4958891;28;86518;-86
2023/02/14 15:53:33;;;;;;;24.52;17.40;;;20.70;59.20;;;;;;4958891;28;87922;-87
2023/02/14 16:06:29;;;;;;;22.70;15.80;;;20.50;58.30;;;;;;4958527;28;87465;-86
2023/02/14 16:08:56;;;;;;;19.45;15.05;;;20.60;58.90;;;;;;4957330;28;88424;-87
2023/02/14 16:11:31;;;;;;;21.27;15.82;;;20.60;58.80;;;;;;4958920;28;87616;-87
2023/02/14 16:13:57;;;;;;;25.50;15.82;;;20.60;58.70;;;;;;4958293;28;91753;-87
2023/02/14 16:16:23;;;;;;;21.20;15.00;;;20.50;58.80;;;;;;4958097;28;88573;-87
2023/02/14 16:18:51;;;;;;;18.27;14.35;;;20.50;58.90;;;;;;4958452;28;88247;-86
2023/02/14 16:21:30;;;;;;;18.17;13.80;;;20.60;58.90;;;;;;4958685;28;87691;-87
2023/02/14 16:24:05;;;;;;;17.50;13.38;;;20.70;58.80;;;;;;4957067;28;87521;-87
2023/02/14 16:26:33;;;;;;;20.02;13.73;;;20.80;58.60;;;;;;4957368;28;89577;-86
2023/02/14 16:32:25;;;;;;;21.05;14.07;;;21.00;58.40;;;;;;4957961;28;86902;-87
2023/02/14 16:34:51;;;;;;;17.63;13.13;;;21.20;58.20;;;;;;4957323;28;87466;-88
2023/02/14 16:37:29;;;;;;;17.77;12.82;;;21.30;58.00;;;;;;4957717;28;88100;-87
2023/02/14 16:39:56;;;;;;;17.50;11.97;;;21.40;57.80;;;;;;4957388;28;88199;-87